Connecticut State Prison, Connecticut
Current Conditions -  °F | °C
As of 9:51 AM on Monday 24 Nov 2014 (Local Time) from KBDL Reporting Station
Light Rain Light Rain  
Wind Chill: 17°   Ceiling: 1000
Heat Index: 17°   Visibility: 4mi
Dew Point: 16°   Wind: 13mph
Humidity: 90%   Direction: 190°S
Pressure: 29.67"   Gusts: NA
Location:  41.9956°N, 72.451°W
Report Text: KBDL 241451Z 19011KT 4SM -RA BR FEW008 OVC010 17/16 A2967 RMK AO2 SLP047 P0002 60022 T01720156 55016
Loading
Personal Weather Stations






























Interactive Weather Map New forecast layout! Learn more

10-Day Weather Forecast

Advertisements
Track Severe Weather on mobile